sensor_id;sensor_type;location;lat;lon;timestamp;temperature;humidity
6822;DHT22;3449;48.728;8.968;2022-12-18T00:01:58;-11.10;99.90
6822;DHT22;3449;48.728;8.968;2022-12-18T00:04:26;-11.10;99.90
6822;DHT22;3449;48.728;8.968;2022-12-18T00:06:56;-11.20;99.90
6822;DHT22;3449;48.728;8.968;2022-12-18T00:09:24;-11.10;99.90
6822;DHT22;3449;48.728;8.968;2022-12-18T00:11:51;-11.20;99.90
6822;DHT22;3449;48.728;8.968;2022-12-18T00:14:19;-11.20;99.90
6822;DHT22;3449;48.728;8.968;2022-12-18T00:16:47;-11.20;99.90
6822;DHT22;3449;48.728;8.968;2022-12-18T00:19:14;-11.20;99.90
6822;DHT22;3449;48.728;8.968;2022-12-18T00:21:42;-11.20;99.90
6822;DHT22;3449;48.728;8.968;2022-12-18T00:24:10;-11.20;99.90
6822;DHT22;3449;48.728;8.968;2022-12-18T00:26:38;-11.20;99.90
6822;DHT22;3449;48.728;8.968;2022-12-18T00:29:08;-11.20;99.90
6822;DHT22;3449;48.728;8.968;2022-12-18T00:31:37;-11.30;99.90
6822;DHT22;3449;48.728;8.968;2022-12-18T00:34:04;-11.30;99.90
6822;DHT22;3449;48.728;8.968;2022-12-18T00:36:35;-11.30;99.90
6822;DHT22;3449;48.728;8.968;2022-12-18T00:39:04;-11.20;99.90
6822;DHT22;3449;48.728;8.968;2022-12-18T00:41:31;-11.20;99.90
6822;DHT22;3449;48.728;8.968;2022-12-18T00:44:17;-11.20;99.90
6822;DHT22;3449;48.728;8.968;2022-12-18T00:46:46;-11.20;99.90
6822;DHT22;3449;48.728;8.968;2022-12-18T00:49:14;-11.20;99.90
6822;DHT22;3449;48.728;8.968;2022-12-18T00:51:41;-11.20;99.90
6822;DHT22;3449;48.728;8.968;2022-12-18T00:54:08;-11.30;99.90
6822;DHT22;3449;48.728;8.968;2022-12-18T00:56:36;-11.20;99.90
6822;DHT22;3449;48.728;8.968;2022-12-18T00:59:04;-11.30;99.90
6822;DHT22;3449;48.728;8.968;2022-12-18T01:01:31;-11.30;99.90
6822;DHT22;3449;48.728;8.968;2022-12-18T01:04:01;-11.30;99.90
6822;DHT22;3449;48.728;8.968;2022-12-18T01:06:29;-11.40;99.90
6822;DHT22;3449;48.728;8.968;2022-12-18T01:08:56;-11.40;99.90
6822;DHT22;3449;48.728;8.968;2022-12-18T01:11:23;-11.40;99.90
6822;DHT22;3449;48.728;8.968;2022-12-18T01:13:52;-11.50;99.90
6822;DHT22;3449;48.728;8.968;2022-12-18T01:16:22;-11.50;99.90
6822;DHT22;3449;48.728;8.968;2022-12-18T01:18:51;-11.50;99.90
6822;DHT22;3449;48.728;8.968;2022-12-18T01:21:21;-11.60;99.90
6822;DHT22;3449;48.728;8.968;2022-12-18T01:23:51;-11.60;99.90
6822;DHT22;3449;48.728;8.968;2022-12-18T01:26:19;-11.70;99.90
6822;DHT22;3449;48.728;8.968;2022-12-18T01:28:46;-11.70;99.90
6822;DHT22;3449;48.728;8.968;2022-12-18T01:31:15;-11.70;99.90
6822;DHT22;3449;48.728;8.968;2022-12-18T01:33:43;-11.70;99.90
6822;DHT22;3449;48.728;8.968;2022-12-18T01:36:15;-11.70;99.90
6822;DHT22;3449;48.728;8.968;2022-12-18T01:38:44;-11.70;99.90
6822;DHT22;3449;48.728;8.968;2022-12-18T01:41:11;-11.80;99.90
6822;DHT22;3449;48.728;8.968;2022-12-18T01:43:47;-11.80;99.90
6822;DHT22;3449;48.728;8.968;2022-12-18T01:46:15;-11.80;99.90
6822;DHT22;3449;48.728;8.968;2022-12-18T01:48:43;-11.70;99.90
6822;DHT22;3449;48.728;8.968;2022-12-18T01:51:11;-11.70;99.90
6822;DHT22;3449;48.728;8.968;2022-12-18T01:53:40;-11.60;99.90
6822;DHT22;3449;48.728;8.968;2022-12-18T01:56:12;-11.60;99.90
6822;DHT22;3449;48.728;8.968;2022-12-18T01:58:46;-11.60;99.90
6822;DHT22;3449;48.728;8.968;2022-12-18T02:01:15;-11.60;99.90
6822;DHT22;3449;48.728;8.968;2022-12-18T02:03:43;-11.50;99.90
6822;DHT22;3449;48.728;8.968;2022-12-18T02:06:15;-11.50;99.90
6822;DHT22;3449;48.728;8.968;2022-12-18T02:08:52;-11.50;99.90
6822;DHT22;3449;48.728;8.968;2022-12-18T02:11:32;-11.50;99.90
6822;DHT22;3449;48.728;8.968;2022-12-18T02:14:06;-11.50;99.90
6822;DHT22;3449;48.728;8.968;2022-12-18T02:16:40;-11.50;99.90
6822;DHT22;3449;48.728;8.968;2022-12-18T02:19:20;-11.50;99.90
6822;DHT22;3449;48.728;8.968;2022-12-18T02:21:57;-11.50;99.90
6822;DHT22;3449;48.728;8.968;2022-12-18T02:24:37;-11.50;99.90
6822;DHT22;3449;48.728;8.968;2022-12-18T02:27:10;-11.60;99.90
6822;DHT22;3449;48.728;8.968;2022-12-18T02:29:40;-11.60;99.90
6822;DHT22;3449;48.728;8.968;2022-12-18T02:32:10;-11.50;99.90
6822;DHT22;3449;48.728;8.968;2022-12-18T02:34:39;-11.50;99.90
6822;DHT22;3449;48.728;8.968;2022-12-18T02:37:14;-11.40;99.90
6822;DHT22;3449;48.728;8.968;2022-12-18T02:39:44;-11.40;99.90
6822;DHT22;3449;48.728;8.968;2022-12-18T02:42:15;-11.30;99.90
6822;DHT22;3449;48.728;8.968;2022-12-18T02:44:44;-11.30;99.90
6822;DHT22;3449;48.728;8.968;2022-12-18T02:47:12;-11.40;99.90
6822;DHT22;3449;48.728;8.968;2022-12-18T02:49:47;-11.40;99.90
6822;DHT22;3449;48.728;8.968;2022-12-18T02:52:21;-11.50;99.90
6822;DHT22;3449;48.728;8.968;2022-12-18T02:54:57;-11.50;99.90
6822;DHT22;3449;48.728;8.968;2022-12-18T02:57:34;-11.70;99.90
6822;DHT22;3449;48.728;8.968;2022-12-18T03:00:06;-11.70;99.90
6822;DHT22;3449;48.728;8.968;2022-12-18T03:02:38;-11.80;99.90
6822;DHT22;3449;48.728;8.968;2022-12-18T03:05:11;-11.80;99.90
6822;DHT22;3449;48.728;8.968;2022-12-18T03:07:46;-11.80;99.90
6822;DHT22;3449;48.728;8.968;2022-12-18T03:10:17;-11.80;99.90
6822;DHT22;3449;48.728;8.968;2022-12-18T03:12:51;-11.80;99.90
6822;DHT22;3449;48.728;8.968;2022-12-18T03:15:21;-11.70;99.90
6822;DHT22;3449;48.728;8.968;2022-12-18T03:17:52;-11.70;99.90
6822;DHT22;3449;48.728;8.968;2022-12-18T03:20:22;-11.60;99.90
6822;DHT22;3449;48.728;8.968;2022-12-18T03:22:53;-11.50;99.90
6822;DHT22;3449;48.728;8.968;2022-12-18T03:25:23;-11.40;99.90
6822;DHT22;3449;48.728;8.968;2022-12-18T03:27:55;-11.30;99.90
6822;DHT22;3449;48.728;8.968;2022-12-18T03:30:24;-11.30;99.90
6822;DHT22;3449;48.728;8.968;2022-12-18T03:32:56;-11.30;99.90
6822;DHT22;3449;48.728;8.968;2022-12-18T03:35:28;-11.30;99.90
6822;DHT22;3449;48.728;8.968;2022-12-18T03:37:56;-11.20;99.90
6822;DHT22;3449;48.728;8.968;2022-12-18T03:40:29;-11.20;99.90
6822;DHT22;3449;48.728;8.968;2022-12-18T03:43:03;-11.20;99.90
6822;DHT22;3449;48.728;8.968;2022-12-18T03:45:36;-11.20;99.90
6822;DHT22;3449;48.728;8.968;2022-12-18T03:48:07;-11.10;99.90
6822;DHT22;3449;48.728;8.968;2022-12-18T03:50:41;-11.10;99.90
6822;DHT22;3449;48.728;8.968;2022-12-18T03:53:19;-11.10;99.90
6822;DHT22;3449;48.728;8.968;2022-12-18T03:55:51;-11.00;99.90
6822;DHT22;3449;48.728;8.968;2022-12-18T03:58:22;-11.00;99.90
6822;DHT22;3449;48.728;8.968;2022-12-18T04:00:52;-10.90;99.90
6822;DHT22;3449;48.728;8.968;2022-12-18T04:03:20;-10.90;99.90
6822;DHT22;3449;48.728;8.968;2022-12-18T04:05:50;-10.80;99.90
6822;DHT22;3449;48.728;8.968;2022-12-18T04:08:18;-10.80;99.90
6822;DHT22;3449;48.728;8.968;2022-12-18T04:10:46;-10.70;99.90
6822;DHT22;3449;48.728;8.968;2022-12-18T04:13:13;-10.70;99.90
6822;DHT22;3449;48.728;8.968;2022-12-18T04:15:49;-10.60;99.90
6822;DHT22;3449;48.728;8.968;2022-12-18T04:18:16;-10.50;99.90
6822;DHT22;3449;48.728;8.968;2022-12-18T04:20:43;-10.50;99.90
6822;DHT22;3449;48.728;8.968;2022-12-18T04:23:09;-10.40;99.90
6822;DHT22;3449;48.728;8.968;2022-12-18T04:25:36;-10.30;99.90
6822;DHT22;3449;48.728;8.968;2022-12-18T04:28:03;-10.30;99.90
6822;DHT22;3449;48.728;8.968;2022-12-18T04:30:30;-10.20;99.90
6822;DHT22;3449;48.728;8.968;2022-12-18T04:32:59;-10.10;99.90
6822;DHT22;3449;48.728;8.968;2022-12-18T04:35:25;-10.00;99.90
6822;DHT22;3449;48.728;8.968;2022-12-18T04:37:52;-10.00;99.90
6822;DHT22;3449;48.728;8.968;2022-12-18T04:40:19;-9.90;99.90
6822;DHT22;3449;48.728;8.968;2022-12-18T04:42:46;-9.90;99.90
6822;DHT22;3449;48.728;8.968;2022-12-18T04:45:13;-9.80;99.90
6822;DHT22;3449;48.728;8.968;2022-12-18T04:47:40;-9.80;99.90
6822;DHT22;3449;48.728;8.968;2022-12-18T04:50:09;-9.70;99.90
6822;DHT22;3449;48.728;8.968;2022-12-18T04:52:36;-9.70;99.90
6822;DHT22;3449;48.728;8.968;2022-12-18T04:55:03;-9.60;99.90
6822;DHT22;3449;48.728;8.968;2022-12-18T04:57:30;-9.60;99.90
6822;DHT22;3449;48.728;8.968;2022-12-18T04:59:57;-9.50;99.90
6822;DHT22;3449;48.728;8.968;2022-12-18T05:02:24;-9.40;99.90
6822;DHT22;3449;48.728;8.968;2022-12-18T05:04:51;-9.30;99.90
6822;DHT22;3449;48.728;8.968;2022-12-18T05:07:19;-9.30;99.90
6822;DHT22;3449;48.728;8.968;2022-12-18T05:09:46;-9.20;99.90
6822;DHT22;3449;48.728;8.968;2022-12-18T05:12:13;-9.10;99.90
6822;DHT22;3449;48.728;8.968;2022-12-18T05:14:39;-9.10;99.90
6822;DHT22;3449;48.728;8.968;2022-12-18T05:17:06;-9.00;99.90
6822;DHT22;3449;48.728;8.968;2022-12-18T05:19:33;-9.00;99.90
6822;DHT22;3449;48.728;8.968;2022-12-18T05:22:04;-8.90;99.90
6822;DHT22;3449;48.728;8.968;2022-12-18T05:24:36;-8.80;99.90
6822;DHT22;3449;48.728;8.968;2022-12-18T05:27:02;-8.80;99.90
6822;DHT22;3449;48.728;8.968;2022-12-18T05:29:29;-8.80;99.90
6822;DHT22;3449;48.728;8.968;2022-12-18T05:31:56;-8.70;99.90
6822;DHT22;3449;48.728;8.968;2022-12-18T05:34:23;-8.70;99.90
6822;DHT22;3449;48.728;8.968;2022-12-18T05:36:50;-8.70;99.90
6822;DHT22;3449;48.728;8.968;2022-12-18T05:39:17;-8.70;99.90
6822;DHT22;3449;48.728;8.968;2022-12-18T05:41:45;-8.70;99.90
6822;DHT22;3449;48.728;8.968;2022-12-18T05:44:12;-8.70;99.90
6822;DHT22;3449;48.728;8.968;2022-12-18T05:46:41;-8.70;99.90
6822;DHT22;3449;48.728;8.968;2022-12-18T05:49:08;-8.70;99.90
6822;DHT22;3449;48.728;8.968;2022-12-18T05:51:35;-8.80;99.90
6822;DHT22;3449;48.728;8.968;2022-12-18T05:54:02;-8.80;99.90
6822;DHT22;3449;48.728;8.968;2022-12-18T05:56:29;-8.80;99.90
6822;DHT22;3449;48.728;8.968;2022-12-18T05:58:57;-8.80;99.90
6822;DHT22;3449;48.728;8.968;2022-12-18T06:01:26;-8.80;99.90
6822;DHT22;3449;48.728;8.968;2022-12-18T06:03:54;-8.80;99.90
6822;DHT22;3449;48.728;8.968;2022-12-18T06:06:23;-8.80;99.90
6822;DHT22;3449;48.728;8.968;2022-12-18T06:08:50;-8.80;99.90
6822;DHT22;3449;48.728;8.968;2022-12-18T06:11:20;-8.80;99.90
6822;DHT22;3449;48.728;8.968;2022-12-18T06:13:50;-8.90;99.90
6822;DHT22;3449;48.728;8.968;2022-12-18T06:16:19;-8.90;99.90
6822;DHT22;3449;48.728;8.968;2022-12-18T06:18:46;-8.90;99.90
6822;DHT22;3449;48.728;8.968;2022-12-18T06:21:13;-9.00;99.90
6822;DHT22;3449;48.728;8.968;2022-12-18T06:23:40;-9.00;99.90
6822;DHT22;3449;48.728;8.968;2022-12-18T06:26:09;-9.00;99.90
6822;DHT22;3449;48.728;8.968;2022-12-18T06:28:37;-9.10;99.90
6822;DHT22;3449;48.728;8.968;2022-12-18T06:31:04;-9.10;99.90
6822;DHT22;3449;48.728;8.968;2022-12-18T06:33:33;-9.10;99.90
6822;DHT22;3449;48.728;8.968;2022-12-18T06:36:01;-9.20;99.90
6822;DHT22;3449;48.728;8.968;2022-12-18T06:38:28;-9.20;99.90
6822;DHT22;3449;48.728;8.968;2022-12-18T06:40:54;-9.20;99.90
6822;DHT22;3449;48.728;8.968;2022-12-18T06:43:22;-9.30;99.90
6822;DHT22;3449;48.728;8.968;2022-12-18T06:45:48;-9.30;99.90
6822;DHT22;3449;48.728;8.968;2022-12-18T06:48:18;-9.40;99.90
6822;DHT22;3449;48.728;8.968;2022-12-18T06:50:47;-9.50;99.90
6822;DHT22;3449;48.728;8.968;2022-12-18T06:53:14;-9.50;99.90
6822;DHT22;3449;48.728;8.968;2022-12-18T06:55:41;-9.60;99.90
6822;DHT22;3449;48.728;8.968;2022-12-18T06:58:08;-9.60;99.90
6822;DHT22;3449;48.728;8.968;2022-12-18T07:00:35;-9.60;99.90
6822;DHT22;3449;48.728;8.968;2022-12-18T07:03:02;-9.70;99.90
6822;DHT22;3449;48.728;8.968;2022-12-18T07:05:29;-9.70;99.90
6822;DHT22;3449;48.728;8.968;2022-12-18T07:07:57;-9.80;99.90
6822;DHT22;3449;48.728;8.968;2022-12-18T07:10:24;-9.80;99.90
6822;DHT22;3449;48.728;8.968;2022-12-18T07:12:51;-9.90;99.90
6822;DHT22;3449;48.728;8.968;2022-12-18T07:15:18;-9.90;99.90
6822;DHT22;3449;48.728;8.968;2022-12-18T07:17:45;-10.00;99.90
6822;DHT22;3449;48.728;8.968;2022-12-18T07:20:12;-10.00;99.90
6822;DHT22;3449;48.728;8.968;2022-12-18T07:22:39;-10.00;99.90
6822;DHT22;3449;48.728;8.968;2022-12-18T07:25:07;-10.00;99.90
6822;DHT22;3449;48.728;8.968;2022-12-18T07:27:34;-10.10;99.90
6822;DHT22;3449;48.728;8.968;2022-12-18T07:30:01;-10.10;99.90
6822;DHT22;3449;48.728;8.968;2022-12-18T07:32:30;-10.10;99.90
6822;DHT22;3449;48.728;8.968;2022-12-18T07:34:57;-10.10;99.90
6822;DHT22;3449;48.728;8.968;2022-12-18T07:37:23;-10.10;99.90
6822;DHT22;3449;48.728;8.968;2022-12-18T07:39:50;-10.10;99.90
6822;DHT22;3449;48.728;8.968;2022-12-18T07:42:19;-10.20;99.90
6822;DHT22;3449;48.728;8.968;2022-12-18T07:44:58;-10.20;99.90
6822;DHT22;3449;48.728;8.968;2022-12-18T07:47:25;-10.00;99.90
6822;DHT22;3449;48.728;8.968;2022-12-18T07:49:52;-9.80;99.90
6822;DHT22;3449;48.728;8.968;2022-12-18T07:52:19;-9.70;99.90
6822;DHT22;3449;48.728;8.968;2022-12-18T07:54:46;-9.60;99.90
6822;DHT22;3449;48.728;8.968;2022-12-18T07:57:14;-9.70;99.90
6822;DHT22;3449;48.728;8.968;2022-12-18T07:59:43;-9.70;99.90
6822;DHT22;3449;48.728;8.968;2022-12-18T08:02:10;-9.80;99.90
6822;DHT22;3449;48.728;8.968;2022-12-18T08:04:36;-9.80;99.90
6822;DHT22;3449;48.728;8.968;2022-12-18T08:07:03;-9.70;99.90
6822;DHT22;3449;48.728;8.968;2022-12-18T08:09:30;-9.70;99.90
6822;DHT22;3449;48.728;8.968;2022-12-18T08:11:57;-9.50;99.90
6822;DHT22;3449;48.728;8.968;2022-12-18T08:14:24;-9.70;99.90
6822;DHT22;3449;48.728;8.968;2022-12-18T08:16:52;-9.60;99.90
6822;DHT22;3449;48.728;8.968;2022-12-18T08:19:19;-9.60;99.90
6822;DHT22;3449;48.728;8.968;2022-12-18T08:21:46;-9.50;99.90
6822;DHT22;3449;48.728;8.968;2022-12-18T08:24:13;-9.50;99.90
6822;DHT22;3449;48.728;8.968;2022-12-18T08:26:43;-9.50;99.90
6822;DHT22;3449;48.728;8.968;2022-12-18T08:29:18;-9.30;99.90
6822;DHT22;3449;48.728;8.968;2022-12-18T08:31:46;-9.30;99.90
6822;DHT22;3449;48.728;8.968;2022-12-18T08:34:15;-9.20;99.90
6822;DHT22;3449;48.728;8.968;2022-12-18T08:36:43;-9.00;99.90
6822;DHT22;3449;48.728;8.968;2022-12-18T08:39:10;-8.90;99.90
6822;DHT22;3449;48.728;8.968;2022-12-18T08:41:41;-8.80;99.90
6822;DHT22;3449;48.728;8.968;2022-12-18T08:44:34;-8.70;99.90
6822;DHT22;3449;48.728;8.968;2022-12-18T08:47:07;-8.70;99.90
6822;DHT22;3449;48.728;8.968;2022-12-18T08:49:36;-8.60;99.90
6822;DHT22;3449;48.728;8.968;2022-12-18T08:52:03;-8.50;99.90
6822;DHT22;3449;48.728;8.968;2022-12-18T08:54:30;-8.40;99.90
6822;DHT22;3449;48.728;8.968;2022-12-18T08:56:57;-8.40;99.90
6822;DHT22;3449;48.728;8.968;2022-12-18T08:59:24;-8.40;99.90
6822;DHT22;3449;48.728;8.968;2022-12-18T09:01:53;-8.30;99.90
6822;DHT22;3449;48.728;8.968;2022-12-18T09:04:20;-8.20;99.90
6822;DHT22;3449;48.728;8.968;2022-12-18T09:06:49;-8.00;99.90
6822;DHT22;3449;48.728;8.968;2022-12-18T09:09:16;-7.90;99.90
6822;DHT22;3449;48.728;8.968;2022-12-18T09:11:43;-7.70;99.90
6822;DHT22;3449;48.728;8.968;2022-12-18T09:14:10;-7.70;99.90
6822;DHT22;3449;48.728;8.968;2022-12-18T09:16:37;-7.60;99.90
6822;DHT22;3449;48.728;8.968;2022-12-18T09:19:04;-7.50;99.90
6822;DHT22;3449;48.728;8.968;2022-12-18T09:21:33;-7.50;99.90
6822;DHT22;3449;48.728;8.968;2022-12-18T09:24:02;-7.50;99.90
6822;DHT22;3449;48.728;8.968;2022-12-18T09:26:29;-7.40;99.90
6822;DHT22;3449;48.728;8.968;2022-12-18T09:28:56;-7.40;99.90
6822;DHT22;3449;48.728;8.968;2022-12-18T09:31:24;-7.20;99.90
6822;DHT22;3449;48.728;8.968;2022-12-18T09:33:51;-7.20;99.90
6822;DHT22;3449;48.728;8.968;2022-12-18T09:36:18;-7.10;99.90
6822;DHT22;3449;48.728;8.968;2022-12-18T09:38:45;-6.90;99.90
6822;DHT22;3449;48.728;8.968;2022-12-18T09:41:33;-6.70;99.90
6822;DHT22;3449;48.728;8.968;2022-12-18T09:44:05;-6.70;99.90
6822;DHT22;3449;48.728;8.968;2022-12-18T09:46:41;-6.60;99.90
6822;DHT22;3449;48.728;8.968;2022-12-18T09:49:13;-6.50;99.90
6822;DHT22;3449;48.728;8.968;2022-12-18T09:51:45;-6.40;99.90
6822;DHT22;3449;48.728;8.968;2022-12-18T09:54:18;-6.10;99.90
6822;DHT22;3449;48.728;8.968;2022-12-18T09:56:48;-5.90;99.90
6822;DHT22;3449;48.728;8.968;2022-12-18T09:59:21;-5.70;99.90
6822;DHT22;3449;48.728;8.968;2022-12-18T10:01:50;-5.50;99.90
6822;DHT22;3449;48.728;8.968;2022-12-18T10:04:17;-5.30;99.90
6822;DHT22;3449;48.728;8.968;2022-12-18T10:06:49;-5.10;99.90
6822;DHT22;3449;48.728;8.968;2022-12-18T10:09:26;-4.80;99.90
6822;DHT22;3449;48.728;8.968;2022-12-18T10:12:01;-4.60;99.90
6822;DHT22;3449;48.728;8.968;2022-12-18T10:14:34;-4.50;99.90
6822;DHT22;3449;48.728;8.968;2022-12-18T10:17:07;-4.50;99.90
6822;DHT22;3449;48.728;8.968;2022-12-18T10:19:42;-4.40;99.90
6822;DHT22;3449;48.728;8.968;2022-12-18T10:22:21;-4.20;99.90
6822;DHT22;3449;48.728;8.968;2022-12-18T10:24:55;-4.10;99.90
6822;DHT22;3449;48.728;8.968;2022-12-18T10:27:27;-3.90;99.90
6822;DHT22;3449;48.728;8.968;2022-12-18T10:29:55;-3.70;99.90
6822;DHT22;3449;48.728;8.968;2022-12-18T10:32:24;-3.50;99.90
6822;DHT22;3449;48.728;8.968;2022-12-18T10:34:53;-3.40;99.90
6822;DHT22;3449;48.728;8.968;2022-12-18T10:37:22;-3.30;99.90
6822;DHT22;3449;48.728;8.968;2022-12-18T10:40:07;-3.20;99.90
6822;DHT22;3449;48.728;8.968;2022-12-18T10:42:36;-3.30;99.90
6822;DHT22;3449;48.728;8.968;2022-12-18T10:45:11;-3.20;99.90
6822;DHT22;3449;48.728;8.968;2022-12-18T10:47:45;-3.20;99.90
6822;DHT22;3449;48.728;8.968;2022-12-18T10:50:25;-2.90;99.90
6822;DHT22;3449;48.728;8.968;2022-12-18T10:52:55;-2.60;99.90
6822;DHT22;3449;48.728;8.968;2022-12-18T10:55:22;-2.60;99.90
6822;DHT22;3449;48.728;8.968;2022-12-18T10:57:51;-2.20;99.90
6822;DHT22;3449;48.728;8.968;2022-12-18T11:00:24;-2.20;99.90
6822;DHT22;3449;48.728;8.968;2022-12-18T11:02:51;-2.00;99.90
6822;DHT22;3449;48.728;8.968;2022-12-18T11:05:27;-1.70;99.90
6822;DHT22;3449;48.728;8.968;2022-12-18T11:07:55;-1.60;99.90
6822;DHT22;3449;48.728;8.968;2022-12-18T11:10:25;-1.40;99.90
6822;DHT22;3449;48.728;8.968;2022-12-18T11:12:54;-1.40;99.90
6822;DHT22;3449;48.728;8.968;2022-12-18T11:15:25;-1.20;99.90
6822;DHT22;3449;48.728;8.968;2022-12-18T11:17:52;-1.10;99.90
6822;DHT22;3449;48.728;8.968;2022-12-18T11:20:30;-1.10;99.90
6822;DHT22;3449;48.728;8.968;2022-12-18T11:22:59;-1.00;99.90
6822;DHT22;3449;48.728;8.968;2022-12-18T11:25:28;-1.00;99.90
6822;DHT22;3449;48.728;8.968;2022-12-18T11:27:59;-1.40;99.90
6822;DHT22;3449;48.728;8.968;2022-12-18T11:30:29;-1.40;99.90
6822;DHT22;3449;48.728;8.968;2022-12-18T11:33:01;-1.10;99.90
6822;DHT22;3449;48.728;8.968;2022-12-18T11:35:37;-1.00;99.90
6822;DHT22;3449;48.728;8.968;2022-12-18T11:38:12;-1.00;99.90
6822;DHT22;3449;48.728;8.968;2022-12-18T11:40:47;-1.10;99.90
6822;DHT22;3449;48.728;8.968;2022-12-18T11:43:23;-0.90;99.90
6822;DHT22;3449;48.728;8.968;2022-12-18T11:45:56;-0.80;99.90
6822;DHT22;3449;48.728;8.968;2022-12-18T11:48:28;-0.80;99.90
6822;DHT22;3449;48.728;8.968;2022-12-18T11:50:59;-0.70;99.90
6822;DHT22;3449;48.728;8.968;2022-12-18T11:53:28;-0.50;99.90
6822;DHT22;3449;48.728;8.968;2022-12-18T11:56:03;-0.30;99.90
6822;DHT22;3449;48.728;8.968;2022-12-18T11:58:47;-0.20;99.90
6822;DHT22;3449;48.728;8.968;2022-12-18T12:01:27;-0.10;99.90
6822;DHT22;3449;48.728;8.968;2022-12-18T12:04:37;0.00;99.90
6822;DHT22;3449;48.728;8.968;2022-12-18T12:07:21;0.20;99.90
6822;DHT22;3449;48.728;8.968;2022-12-18T12:09:56;-0.10;99.90
6822;DHT22;3449;48.728;8.968;2022-12-18T12:12:35;-0.20;99.90
6822;DHT22;3449;48.728;8.968;2022-12-18T12:15:24;-0.20;99.90
6822;DHT22;3449;48.728;8.968;2022-12-18T12:17:57;-0.50;99.90
6822;DHT22;3449;48.728;8.968;2022-12-18T12:20:39;-0.40;99.90
6822;DHT22;3449;48.728;8.968;2022-12-18T12:23:16;-0.50;99.90
6822;DHT22;3449;48.728;8.968;2022-12-18T12:25:48;-0.60;99.90
6822;DHT22;3449;48.728;8.968;2022-12-18T12:28:29;-0.70;99.90
6822;DHT22;3449;48.728;8.968;2022-12-18T12:31:09;-0.70;99.90
6822;DHT22;3449;48.728;8.968;2022-12-18T12:33:46;-0.80;99.90
6822;DHT22;3449;48.728;8.968;2022-12-18T12:36:21;-0.60;99.90
6822;DHT22;3449;48.728;8.968;2022-12-18T12:38:54;-0.60;99.90
6822;DHT22;3449;48.728;8.968;2022-12-18T12:41:24;-0.70;99.90
6822;DHT22;3449;48.728;8.968;2022-12-18T12:44:15;-0.70;99.90
6822;DHT22;3449;48.728;8.968;2022-12-18T12:46:45;-0.50;99.90
6822;DHT22;3449;48.728;8.968;2022-12-18T12:49:15;-0.60;99.90
6822;DHT22;3449;48.728;8.968;2022-12-18T12:51:47;-0.50;99.90
6822;DHT22;3449;48.728;8.968;2022-12-18T12:54:19;-0.70;99.90
6822;DHT22;3449;48.728;8.968;2022-12-18T12:56:52;-0.70;99.90
6822;DHT22;3449;48.728;8.968;2022-12-18T12:59:30;-0.60;99.90
6822;DHT22;3449;48.728;8.968;2022-12-18T13:02:06;-0.50;99.90
6822;DHT22;3449;48.728;8.968;2022-12-18T13:04:42;-0.40;99.90
6822;DHT22;3449;48.728;8.968;2022-12-18T13:07:15;-0.60;99.90
6822;DHT22;3449;48.728;8.968;2022-12-18T13:12:55;-0.50;99.90
6822;DHT22;3449;48.728;8.968;2022-12-18T13:15:23;-0.50;99.90
6822;DHT22;3449;48.728;8.968;2022-12-18T13:18:12;-0.70;99.90
6822;DHT22;3449;48.728;8.968;2022-12-18T13:20:41;-0.70;99.90
6822;DHT22;3449;48.728;8.968;2022-12-18T13:23:29;-0.90;99.90
6822;DHT22;3449;48.728;8.968;2022-12-18T13:25:57;-1.00;99.90
6822;DHT22;3449;48.728;8.968;2022-12-18T13:28:51;-1.10;99.90
6822;DHT22;3449;48.728;8.968;2022-12-18T13:34:36;-1.30;99.90
6822;DHT22;3449;48.728;8.968;2022-12-18T13:37:40;-1.40;99.90
6822;DHT22;3449;48.728;8.968;2022-12-18T13:43:27;-1.40;99.90
6822;DHT22;3449;48.728;8.968;2022-12-18T13:46:16;-1.40;99.90
6822;DHT22;3449;48.728;8.968;2022-12-18T13:48:53;-1.50;99.90
6822;DHT22;3449;48.728;8.968;2022-12-18T13:51:23;-1.60;99.90
6822;DHT22;3449;48.728;8.968;2022-12-18T13:53:52;-1.80;99.90
6822;DHT22;3449;48.728;8.968;2022-12-18T13:56:24;-1.80;99.90
6822;DHT22;3449;48.728;8.968;2022-12-18T13:59:15;-1.90;99.90
6822;DHT22;3449;48.728;8.968;2022-12-18T14:01:48;-1.90;99.90
6822;DHT22;3449;48.728;8.968;2022-12-18T14:04:20;-1.90;99.90
6822;DHT22;3449;48.728;8.968;2022-12-18T14:06:51;-2.00;99.90
6822;DHT22;3449;48.728;8.968;2022-12-18T14:09:23;-2.10;99.90
6822;DHT22;3449;48.728;8.968;2022-12-18T14:11:51;-2.00;99.90
6822;DHT22;3449;48.728;8.968;2022-12-18T14:14:19;-2.20;99.90
6822;DHT22;3449;48.728;8.968;2022-12-18T14:16:46;-2.30;99.90
6822;DHT22;3449;48.728;8.968;2022-12-18T14:19:16;-2.30;99.90
6822;DHT22;3449;48.728;8.968;2022-12-18T14:21:49;-2.30;99.90
6822;DHT22;3449;48.728;8.968;2022-12-18T14:24:18;-2.30;99.90
6822;DHT22;3449;48.728;8.968;2022-12-18T14:26:45;-2.30;99.90
6822;DHT22;3449;48.728;8.968;2022-12-18T14:29:23;-2.40;99.90
6822;DHT22;3449;48.728;8.968;2022-12-18T14:32:07;-2.40;99.90
6822;DHT22;3449;48.728;8.968;2022-12-18T14:34:34;-2.50;99.90
6822;DHT22;3449;48.728;8.968;2022-12-18T14:37:02;-2.50;99.90
6822;DHT22;3449;48.728;8.968;2022-12-18T14:39:29;-2.50;99.90
6822;DHT22;3449;48.728;8.968;2022-12-18T14:41:56;-2.60;99.90
6822;DHT22;3449;48.728;8.968;2022-12-18T14:44:23;-2.60;99.90
6822;DHT22;3449;48.728;8.968;2022-12-18T14:46:50;-2.70;99.90
6822;DHT22;3449;48.728;8.968;2022-12-18T14:49:24;-2.80;99.90
6822;DHT22;3449;48.728;8.968;2022-12-18T14:51:54;-2.90;99.90
6822;DHT22;3449;48.728;8.968;2022-12-18T14:54:24;-2.90;99.90
6822;DHT22;3449;48.728;8.968;2022-12-18T14:56:56;-3.00;99.90
6822;DHT22;3449;48.728;8.968;2022-12-18T14:59:27;-3.00;99.90
6822;DHT22;3449;48.728;8.968;2022-12-18T15:02:00;-3.10;99.90
6822;DHT22;3449;48.728;8.968;2022-12-18T15:04:30;-3.20;99.90
6822;DHT22;3449;48.728;8.968;2022-12-18T15:07:12;-3.30;99.90
6822;DHT22;3449;48.728;8.968;2022-12-18T15:10:00;-3.30;99.90
6822;DHT22;3449;48.728;8.968;2022-12-18T15:12:34;-3.40;99.90
6822;DHT22;3449;48.728;8.968;2022-12-18T15:15:01;-3.50;99.90
6822;DHT22;3449;48.728;8.968;2022-12-18T15:17:28;-3.60;99.90
6822;DHT22;3449;48.728;8.968;2022-12-18T15:20:01;-3.60;99.90
6822;DHT22;3449;48.728;8.968;2022-12-18T15:22:30;-3.70;99.90
6822;DHT22;3449;48.728;8.968;2022-12-18T15:24:59;-3.70;99.90
6822;DHT22;3449;48.728;8.968;2022-12-18T15:27:29;-3.80;99.90
6822;DHT22;3449;48.728;8.968;2022-12-18T15:30:20;-3.80;99.90
6822;DHT22;3449;48.728;8.968;2022-12-18T15:32:48;-3.80;99.90
6822;DHT22;3449;48.728;8.968;2022-12-18T15:35:19;-3.90;99.90
6822;DHT22;3449;48.728;8.968;2022-12-18T15:37:47;-4.00;99.90
6822;DHT22;3449;48.728;8.968;2022-12-18T15:40:17;-4.00;99.90
6822;DHT22;3449;48.728;8.968;2022-12-18T15:42:46;-4.10;99.90
6822;DHT22;3449;48.728;8.968;2022-12-18T15:45:30;-4.10;99.90
6822;DHT22;3449;48.728;8.968;2022-12-18T15:47:57;-4.20;99.90
6822;DHT22;3449;48.728;8.968;2022-12-18T15:50:25;-4.20;99.90
6822;DHT22;3449;48.728;8.968;2022-12-18T15:52:53;-4.20;99.90
6822;DHT22;3449;48.728;8.968;2022-12-18T15:55:23;-4.30;99.90
6822;DHT22;3449;48.728;8.968;2022-12-18T15:58:09;-4.30;99.90
6822;DHT22;3449;48.728;8.968;2022-12-18T16:00:38;-4.40;99.90
6822;DHT22;3449;48.728;8.968;2022-12-18T16:03:05;-4.40;99.90
6822;DHT22;3449;48.728;8.968;2022-12-18T16:05:32;-4.40;99.90
6822;DHT22;3449;48.728;8.968;2022-12-18T16:07:59;-4.50;99.90
6822;DHT22;3449;48.728;8.968;2022-12-18T16:10:28;-4.50;99.90
6822;DHT22;3449;48.728;8.968;2022-12-18T16:12:55;-4.50;99.90
6822;DHT22;3449;48.728;8.968;2022-12-18T16:15:22;-4.50;99.90
6822;DHT22;3449;48.728;8.968;2022-12-18T16:17:49;-4.50;99.90
6822;DHT22;3449;48.728;8.968;2022-12-18T16:20:19;-4.50;99.90
6822;DHT22;3449;48.728;8.968;2022-12-18T16:22:47;-4.50;99.90
6822;DHT22;3449;48.728;8.968;2022-12-18T16:25:18;-4.50;99.90
6822;DHT22;3449;48.728;8.968;2022-12-18T16:27:47;-4.50;99.90
6822;DHT22;3449;48.728;8.968;2022-12-18T16:30:15;-4.50;99.90